Time;durP1;ratioP1;P1;durP2;ratioP2;P2;SDS_P1;SDS_P2;PMS_P1;PMS_P2;Temp;Humidity;BMP_temperature;BMP_pressure;BME280_temperature;BME280_humidity;BME280_pressure;Samples;Min_cycle;Max_cycle;Signal;HPM_P1;HPM_P2
2022/12/20 00:01:33;;;;;;;;;;;;;;;2.24;100.00;97054.03;5074162;28;20002;-74
2022/12/20 00:04:04;;;;;;;;;;;;;;;2.26;100.00;97046.13;5073675;28;19955;-75
2022/12/20 00:06:30;;;;;;;;;;;;;;;2.27;100.00;97041.75;5074405;28;19952;-75
2022/12/20 00:08:58;;;;;;;;;;;;;;;2.27;100.00;97033.97;5074137;28;19948;-75
2022/12/20 00:11:24;;;;;;;;;;;;;;;2.24;100.00;97035.91;5074024;28;19946;-75
2022/12/20 00:13:50;;;;;;;;;;;;;;;2.22;100.00;97043.00;5072891;28;19953;-75
2022/12/20 00:16:17;;;;;;;;;;;;;;;2.21;100.00;97038.81;5074029;28;19975;-74
2022/12/20 00:18:43;;;;;;;;;;;;;;;2.21;100.00;97025.88;5073797;28;19951;-75
2022/12/20 00:21:11;;;;;;;;;;;;;;;2.23;100.00;97029.13;5074341;28;19948;-74
2022/12/20 00:23:37;;;;;;;;;;;;;;;2.24;100.00;97027.34;5073966;28;19945;-75
2022/12/20 00:26:04;;;;;;;;;;;;;;;2.23;100.00;97017.97;5074006;28;20425;-74
2022/12/20 00:28:30;;;;;;;;;;;;;;;2.22;100.00;97022.31;5073622;28;20430;-74
2022/12/20 00:30:56;;;;;;;;;;;;;;;2.22;100.00;97024.91;5073809;28;19961;-75
2022/12/20 00:33:22;;;;;;;;;;;;;;;2.23;100.00;97017.97;5073847;28;19959;-76
2022/12/20 00:35:48;;;;;;;;;;;;;;;2.25;100.00;97008.28;5073814;28;19982;-75
2022/12/20 00:38:14;;;;;;;;;;;;;;;2.25;100.00;97005.69;5073852;28;20071;-75
2022/12/20 00:40:40;;;;;;;;;;;;;;;2.24;100.00;97004.84;5073847;28;20037;-75
2022/12/20 00:43:06;;;;;;;;;;;;;;;2.23;100.00;97010.19;5073635;28;20419;-74
2022/12/20 00:45:32;;;;;;;;;;;;;;;2.21;100.00;97002.59;5073052;28;19950;-74
2022/12/20 00:47:58;;;;;;;;;;;;;;;2.22;100.00;97013.75;5073778;28;20449;-74
2022/12/20 00:50:24;;;;;;;;;;;;;;;2.24;100.00;97017.78;5073812;28;19960;-75
2022/12/20 00:52:50;;;;;;;;;;;;;;;2.28;100.00;97007.16;5073613;28;19956;-75
2022/12/20 00:55:16;;;;;;;;;;;;;;;2.28;100.00;97025.28;5055680;28;19949;-74
2022/12/20 00:57:41;;;;;;;;;;;;;;;2.26;100.00;97029.78;5073827;28;19952;-74
2022/12/20 01:00:08;;;;;;;;;;;;;;;2.25;100.00;97018.63;5073556;28;20331;-74
2022/12/20 01:02:33;;;;;;;;;;;;;;;2.26;100.00;97017.66;5073499;28;20326;-75
2022/12/20 01:04:59;;;;;;;;;;;;;;;2.27;100.00;97013.28;5073623;28;19993;-74
2022/12/20 01:07:25;;;;;;;;;;;;;;;2.29;100.00;96999.25;5059016;28;20379;-74
2022/12/20 01:09:51;;;;;;;;;;;;;;;2.31;100.00;97019.78;5077514;28;19952;-74
2022/12/20 01:12:17;;;;;;;;;;;;;;;2.30;100.00;97015.59;5077395;28;19984;-75
2022/12/20 01:14:43;;;;;;;;;;;;;;;2.29;100.00;97021.72;5077482;28;20367;-75
2022/12/20 01:17:09;;;;;;;;;;;;;;;2.28;100.00;97030.44;5077472;28;19951;-75
2022/12/20 01:19:36;;;;;;;;;;;;;;;2.26;100.00;97027.19;5077543;28;20496;-75
2022/12/20 01:22:02;;;;;;;;;;;;;;;2.26;100.00;97009.88;5077437;28;20422;-76
2022/12/20 01:24:28;;;;;;;;;;;;;;;2.26;100.00;97019.44;5077317;28;19956;-74
2022/12/20 01:26:54;;;;;;;;;;;;;;;2.27;100.00;97027.06;5077099;28;20001;-75
2022/12/20 01:29:20;;;;;;;;;;;;;;;2.28;100.00;97017.50;5077235;28;20360;-75
2022/12/20 01:31:46;;;;;;;;;;;;;;;2.29;100.00;97022.53;5077008;28;20437;-74
2022/12/20 01:34:12;;;;;;;;;;;;;;;2.33;100.00;97023.03;5076366;28;19951;-74
2022/12/20 01:36:38;;;;;;;;;;;;;;;2.35;100.00;97018.50;5077197;28;19978;-75
2022/12/20 01:39:03;;;;;;;;;;;;;;;2.35;100.00;97008.16;5076890;28;19962;-75
2022/12/20 01:41:31;;;;;;;;;;;;;;;2.36;100.00;97020.16;5076786;28;19986;-74
2022/12/20 01:43:58;;;;;;;;;;;;;;;2.34;100.00;97015.13;5076967;28;20442;-74
2022/12/20 01:46:26;;;;;;;;;;;;;;;2.33;100.00;97013.50;5077179;28;19950;-74
2022/12/20 01:49:01;;;;;;;;;;;;;;;2.34;100.00;97001.38;5076764;28;19967;-75
2022/12/20 01:51:28;;;;;;;;;;;;;;;2.34;100.00;96998.78;5076827;28;19951;-74
2022/12/20 01:53:57;;;;;;;;;;;;;;;2.34;100.00;96994.41;5076562;28;20015;-74
2022/12/20 01:56:23;;;;;;;;;;;;;;;2.34;100.00;96999.59;5076752;28;19949;-74
2022/12/20 01:58:50;;;;;;;;;;;;;;;2.33;100.00;96999.75;5076600;28;19943;-74
2022/12/20 02:01:16;;;;;;;;;;;;;;;2.31;100.00;96984.38;5076482;28;19954;-75
2022/12/20 02:03:42;;;;;;;;;;;;;;;2.34;100.00;96996.19;5076635;28;19967;-74
2022/12/20 02:06:15;;;;;;;;;;;;;;;2.35;100.00;96987.44;5076416;28;20407;-74
2022/12/20 02:08:42;;;;;;;;;;;;;;;2.34;100.00;96989.25;5076571;28;20435;-74
2022/12/20 02:11:14;;;;;;;;;;;;;;;2.34;100.00;96984.06;5076771;28;19957;-74
2022/12/20 02:13:52;;;;;;;;;;;;;;;2.34;100.00;96989.25;5076448;28;19942;-74
2022/12/20 02:16:21;;;;;;;;;;;;;;;2.34;100.00;96963.34;5076463;28;19953;-74
2022/12/20 02:18:51;;;;;;;;;;;;;;;2.33;100.00;96991.97;5075008;28;19947;-74
2022/12/20 02:21:22;;;;;;;;;;;;;;;2.31;100.00;96994.72;5076686;28;19954;-74
2022/12/20 02:24:03;;;;;;;;;;;;;;;2.31;100.00;96991.31;5076127;28;19943;-75
2022/12/20 02:26:38;;;;;;;;;;;;;;;2.29;100.00;96982.88;5076248;28;19967;-74
2022/12/20 02:29:10;;;;;;;;;;;;;;;2.28;100.00;96976.91;5057981;28;19970;-74
2022/12/20 02:31:47;;;;;;;;;;;;;;;2.30;100.00;96984.53;5076130;28;19949;-74
2022/12/20 02:34:14;;;;;;;;;;;;;;;2.29;100.00;96980.28;5076149;28;19941;-74
2022/12/20 02:36:40;;;;;;;;;;;;;;;2.27;100.00;96980.47;5076227;28;20322;-74
2022/12/20 02:39:06;;;;;;;;;;;;;;;2.25;100.00;96964.28;5075930;28;19953;-74
2022/12/20 02:41:35;;;;;;;;;;;;;;;2.24;100.00;96973.81;5075712;28;19960;-75
2022/12/20 02:46:57;;;;;;;;;;;;;;;2.19;100.00;96976.03;5034428;28;20303;-74
2022/12/20 02:49:25;;;;;;;;;;;;;;;2.16;100.00;96973.78;5075573;28;19949;-75
2022/12/20 02:51:53;;;;;;;;;;;;;;;2.16;100.00;96970.34;5075808;28;19949;-74
2022/12/20 02:54:19;;;;;;;;;;;;;;;2.17;100.00;96957.28;5075530;28;19942;-75
2022/12/20 02:56:55;;;;;;;;;;;;;;;2.17;100.00;96953.88;5075698;28;19950;-75
2022/12/20 02:59:26;;;;;;;;;;;;;;;2.16;100.00;96978.13;5075734;28;19963;-74
2022/12/20 03:01:53;;;;;;;;;;;;;;;2.15;100.00;96974.72;5075856;28;19961;-74
2022/12/20 03:04:23;;;;;;;;;;;;;;;2.14;100.00;96960.19;5075442;28;19941;-74
2022/12/20 03:06:59;;;;;;;;;;;;;;;2.13;100.00;96963.72;5075449;28;19951;-74
2022/12/20 03:09:25;;;;;;;;;;;;;;;2.14;100.00;96962.78;5075353;28;19954;-74
2022/12/20 03:11:52;;;;;;;;;;;;;;;2.15;100.00;96959.19;5075348;28;19950;-74
2022/12/20 03:14:18;;;;;;;;;;;;;;;2.15;100.00;96943.69;5075316;28;19950;-74
2022/12/20 03:16:43;;;;;;;;;;;;;;;2.14;100.00;96926.53;5075024;28;20003;-74
2022/12/20 03:19:09;;;;;;;;;;;;;;;2.13;100.00;96913.75;5075664;28;20000;-74
2022/12/20 03:21:35;;;;;;;;;;;;;;;2.13;100.00;96911.16;5075044;28;20404;-74
2022/12/20 03:24:01;;;;;;;;;;;;;;;2.12;100.00;96914.69;5075581;28;19963;-74
2022/12/20 03:26:27;;;;;;;;;;;;;;;2.11;100.00;96939.78;5040412;28;19952;-74
2022/12/20 03:28:53;;;;;;;;;;;;;;;2.08;100.00;96937.50;5074875;28;20007;-74
2022/12/20 03:31:19;;;;;;;;;;;;;;;2.10;100.00;96945.91;5074723;28;19956;-74
2022/12/20 03:33:45;;;;;;;;;;;;;;;2.12;100.00;96946.59;5075125;28;19956;-74
2022/12/20 03:36:11;;;;;;;;;;;;;;;2.14;100.00;96944.66;5074852;28;19982;-74
2022/12/20 03:38:37;;;;;;;;;;;;;;;2.15;100.00;96946.25;5074648;28;19950;-74
2022/12/20 03:41:03;;;;;;;;;;;;;;;2.15;100.00;96941.09;5074756;28;20401;-74
2022/12/20 03:43:28;;;;;;;;;;;;;;;2.13;100.00;96924.91;5074690;28;19958;-74
2022/12/20 03:45:54;;;;;;;;;;;;;;;2.12;100.00;96918.13;5074531;28;20368;-75
2022/12/20 03:48:20;;;;;;;;;;;;;;;2.12;100.00;96925.03;5075074;28;19963;-74
2022/12/20 03:50:46;;;;;;;;;;;;;;;2.12;100.00;96923.28;5074393;28;20348;-74
2022/12/20 03:53:12;;;;;;;;;;;;;;;2.09;100.00;96913.22;5074756;28;20042;-74
2022/12/20 03:55:38;;;;;;;;;;;;;;;2.10;100.00;96914.03;5074319;28;20003;-74
2022/12/20 03:58:04;;;;;;;;;;;;;;;2.09;100.00;96905.47;5074477;28;19956;-74
2022/12/20 04:00:30;;;;;;;;;;;;;;;2.08;100.00;96900.44;5074421;28;19956;-75
2022/12/20 04:02:57;;;;;;;;;;;;;;;2.09;100.00;96899.50;5074264;28;20300;-74
2022/12/20 04:05:22;;;;;;;;;;;;;;;2.10;100.00;96907.13;5074525;28;19954;-74
2022/12/20 04:07:48;;;;;;;;;;;;;;;2.12;100.00;96906.94;5074104;28;19958;-75
2022/12/20 04:10:14;;;;;;;;;;;;;;;2.14;100.00;96918.78;5074113;28;20361;-74
2022/12/20 04:12:40;;;;;;;;;;;;;;;2.17;100.00;96910.69;5074106;28;20404;-74
2022/12/20 04:15:06;;;;;;;;;;;;;;;2.18;100.00;96927.03;5074062;28;19956;-74
2022/12/20 04:17:32;;;;;;;;;;;;;;;2.18;100.00;96921.84;5073886;28;19967;-74
2022/12/20 04:20:17;;;;;;;;;;;;;;;2.18;100.00;96930.44;5056499;28;20392;-74
2022/12/20 04:22:46;;;;;;;;;;;;;;;2.17;100.00;96926.22;5073949;28;19953;-74
2022/12/20 04:25:13;;;;;;;;;;;;;;;2.17;100.00;96925.41;5074155;28;19948;-74
2022/12/20 04:27:39;;;;;;;;;;;;;;;2.18;100.00;96921.84;5073718;28;19962;-74
2022/12/20 04:30:05;;;;;;;;;;;;;;;2.17;100.00;96905.53;5073934;28;19990;-74
2022/12/20 04:32:31;;;;;;;;;;;;;;;2.19;100.00;96911.34;5073776;28;19960;-74
2022/12/20 04:34:57;;;;;;;;;;;;;;;2.19;100.00;96902.78;5074075;28;19950;-74
2022/12/20 04:37:23;;;;;;;;;;;;;;;2.19;100.00;96885.47;5073717;28;20070;-74
2022/12/20 04:39:49;;;;;;;;;;;;;;;2.21;100.00;96870.63;5073610;28;20436;-74
2022/12/20 04:42:14;;;;;;;;;;;;;;;2.24;100.00;96874.66;5073229;28;20047;-74
2022/12/20 04:44:40;;;;;;;;;;;;;;;2.26;100.00;96869.34;5073853;28;19950;-74
2022/12/20 04:47:06;;;;;;;;;;;;;;;2.28;100.00;96883.75;5074234;28;20454;-74
2022/12/20 04:49:32;;;;;;;;;;;;;;;2.32;100.00;96887.66;5073809;28;19965;-75
2022/12/20 04:53:46;;;;;;;;;;;;;;;2.34;100.00;96875.34;5073680;28;19953;-74
2022/12/20 04:54:45;;;;;;;;;;;;;;;2.35;100.00;96886.50;5073461;28;19950;-74
2022/12/20 04:57:11;;;;;;;;;;;;;;;2.34;100.00;96872.78;5073444;28;19943;-74
2022/12/20 04:59:37;;;;;;;;;;;;;;;2.37;100.00;96866.47;5073971;28;20012;-74
2022/12/20 05:02:02;;;;;;;;;;;;;;;2.40;100.00;96866.16;5073678;28;20003;-74
2022/12/20 05:04:28;;;;;;;;;;;;;;;2.42;100.00;96867.63;5073520;28;20001;-74
2022/12/20 05:06:54;;;;;;;;;;;;;;;2.41;100.00;96866.00;5073453;28;19979;-74
2022/12/20 05:09:20;;;;;;;;;;;;;;;2.46;100.00;96856.94;5073269;28;19960;-75
2022/12/20 05:11:46;;;;;;;;;;;;;;;2.47;100.00;96861.19;5073511;28;20460;-74
2022/12/20 05:14:12;;;;;;;;;;;;;;;2.48;100.00;96853.25;5073369;28;20355;-74
2022/12/20 05:16:37;;;;;;;;;;;;;;;2.49;100.00;96859.25;5073774;28;20057;-74
2022/12/20 05:19:03;;;;;;;;;;;;;;;2.54;100.00;96860.41;5073344;28;19955;-75
2022/12/20 05:26:59;;;;;;;;;;;;;;;2.62;100.00;96849.25;5073546;28;19949;-74
2022/12/20 05:29:25;;;;;;;;;;;;;;;2.61;100.00;96855.41;5073593;28;19961;-74
2022/12/20 05:31:51;;;;;;;;;;;;;;;2.59;100.00;96858.13;5073087;28;20434;-75
2022/12/20 05:34:17;;;;;;;;;;;;;;;2.58;100.00;96851.34;5073046;28;19946;-74
2022/12/20 05:36:43;;;;;;;;;;;;;;;2.61;100.00;96845.84;5072718;28;20381;-74
2022/12/20 05:39:10;;;;;;;;;;;;;;;2.62;100.00;96847.47;5073497;28;19966;-76
2022/12/20 05:41:36;;;;;;;;;;;;;;;2.64;100.00;96847.31;5055675;28;19958;-74
2022/12/20 05:44:03;;;;;;;;;;;;;;;2.65;100.00;96851.53;5073056;28;20429;-74
2022/12/20 05:46:29;;;;;;;;;;;;;;;2.63;100.00;96851.69;5073003;28;20396;-74
2022/12/20 05:48:55;;;;;;;;;;;;;;;2.62;100.00;96847.47;5073144;28;20067;-74
2022/12/20 05:51:20;;;;;;;;;;;;;;;2.59;100.00;96850.38;5073536;28;20351;-75
2022/12/20 05:53:46;;;;;;;;;;;;;;;2.57;100.00;96843.72;5076676;28;19959;-74
2022/12/20 05:56:12;;;;;;;;;;;;;;;2.53;100.00;96837.25;5076749;28;19990;-74
2022/12/20 05:58:39;;;;;;;;;;;;;;;2.50;100.00;96838.38;5077028;28;19956;-75
2022/12/20 06:01:05;;;;;;;;;;;;;;;2.49;100.00;96833.34;5076840;28;19954;-74
2022/12/20 06:03:31;;;;;;;;;;;;;;;2.47;100.00;96833.50;5076440;28;19944;-74
2022/12/20 06:05:57;;;;;;;;;;;;;;;2.46;100.00;96839.66;5075996;28;19947;-75
2022/12/20 06:08:23;;;;;;;;;;;;;;;2.48;100.00;96829.97;5076917;28;19962;-74
2022/12/20 06:10:49;;;;;;;;;;;;;;;2.50;100.00;96840.97;5076601;28;19953;-74
2022/12/20 06:13:15;;;;;;;;;;;;;;;2.51;100.00;96844.38;5076544;28;19950;-74
2022/12/20 06:15:41;;;;;;;;;;;;;;;2.51;100.00;96841.78;5076340;28;19955;-75
2022/12/20 06:18:07;;;;;;;;;;;;;;;2.52;100.00;96849.38;5076540;28;19995;-75
2022/12/20 06:20:34;;;;;;;;;;;;;;;2.55;100.00;96846.47;5076312;28;20409;-75
2022/12/20 06:23:00;;;;;;;;;;;;;;;2.59;100.00;96849.56;5076275;28;19972;-74
2022/12/20 06:25:26;;;;;;;;;;;;;;;2.58;100.00;96845.34;5076371;28;19956;-75
2022/12/20 06:27:52;;;;;;;;;;;;;;;2.57;100.00;96849.72;5075984;28;19951;-74
2022/12/20 06:30:18;;;;;;;;;;;;;;;2.56;100.00;96839.50;5076148;28;19988;-75
2022/12/20 06:32:44;;;;;;;;;;;;;;;2.54;100.00;96847.47;5076226;28;19954;-74
2022/12/20 06:35:10;;;;;;;;;;;;;;;2.53;100.00;96843.22;5075984;28;19947;-74
2022/12/20 06:37:39;;;;;;;;;;;;;;;2.50;100.00;96847.91;5058046;28;19965;-75
2022/12/20 06:40:05;;;;;;;;;;;;;;;2.45;100.00;96845.78;5075839;28;19968;-74
2022/12/20 06:42:31;;;;;;;;;;;;;;;2.44;100.00;96844.19;5076141;28;19949;-75
2022/12/20 06:44:57;;;;;;;;;;;;;;;2.43;100.00;96845.94;5075652;28;20003;-75
2022/12/20 06:47:23;;;;;;;;;;;;;;;2.43;100.00;96842.53;5075828;28;19995;-75
2022/12/20 06:49:49;;;;;;;;;;;;;;;2.43;100.00;96845.94;5075521;28;20008;-75
2022/12/20 06:52:15;;;;;;;;;;;;;;;2.43;100.00;96845.13;5075641;28;20312;-75
2022/12/20 06:54:41;;;;;;;;;;;;;;;2.44;100.00;96839.81;5076073;28;20004;-75
2022/12/20 06:57:07;;;;;;;;;;;;;;;2.44;100.00;96841.59;5075592;28;19946;-75
2022/12/20 06:59:33;;;;;;;;;;;;;;;2.46;100.00;96844.84;5075324;28;20307;-75
2022/12/20 07:01:59;;;;;;;;;;;;;;;2.48;100.00;96848.09;5075510;28;19973;-74
2022/12/20 07:04:25;;;;;;;;;;;;;;;2.52;100.00;96846.81;5075096;28;19948;-75
2022/12/20 07:06:51;;;;;;;;;;;;;;;2.55;100.00;96841.28;5075401;28;20303;-75
2022/12/20 07:09:17;;;;;;;;;;;;;;;2.59;100.00;96842.59;5075212;28;20000;-75
2022/12/20 07:11:42;;;;;;;;;;;;;;;2.67;100.00;96835.81;5074757;28;20029;-75
2022/12/20 07:14:08;;;;;;;;;;;;;;;2.72;100.00;96828.41;5075219;28;19946;-76
2022/12/20 07:16:35;;;;;;;;;;;;;;;2.82;100.00;96840.22;5075833;28;19950;-75
2022/12/20 07:19:01;;;;;;;;;;;;;;;2.91;100.00;96838.47;5075033;28;20416;-75
2022/12/20 07:21:26;;;;;;;;;;;;;;;3.01;100.00;96833.13;5075213;28;19948;-75
2022/12/20 07:23:53;;;;;;;;;;;;;;;3.10;100.00;96831.34;5075248;28;19949;-76
2022/12/20 07:26:19;;;;;;;;;;;;;;;3.18;100.00;96839.16;5074995;28;19957;-75
2022/12/20 07:28:45;;;;;;;;;;;;;;;3.24;100.00;96833.31;5074906;28;20409;-76
2022/12/20 07:31:11;;;;;;;;;;;;;;;3.30;100.00;96845.63;5074898;28;19996;-75
2022/12/20 07:33:37;;;;;;;;;;;;;;;3.35;100.00;96838.16;5074802;28;19991;-75
2022/12/20 07:36:04;;;;;;;;;;;;;;;3.41;100.00;96841.91;5074662;28;19993;-75
2022/12/20 07:38:31;;;;;;;;;;;;;;;3.43;100.00;96845.13;5040418;28;19942;-76
2022/12/20 07:40:57;;;;;;;;;;;;;;;3.48;100.00;96845.44;5074636;28;19946;-75
2022/12/20 07:43:23;;;;;;;;;;;;;;;3.54;100.00;96831.03;5074716;28;20021;-75
2022/12/20 07:45:52;;;;;;;;;;;;;;;3.58;100.00;96833.13;5074598;28;20035;-75
2022/12/20 07:48:18;;;;;;;;;;;;;;;3.62;100.00;96831.03;5056778;28;19981;-75
2022/12/20 07:50:44;;;;;;;;;;;;;;;3.64;100.00;96816.91;5074176;28;20412;-76
2022/12/20 07:53:10;;;;;;;;;;;;;;;3.73;100.00;96822.09;5074833;28;19951;-75
2022/12/20 07:55:38;;;;;;;;;;;;;;;3.75;100.00;96825.31;5074298;28;19960;-75
2022/12/20 07:58:06;;;;;;;;;;;;;;;3.79;100.00;96824.81;5074360;28;19950;-76
2022/12/20 08:00:32;;;;;;;;;;;;;;;3.79;100.00;96827.41;5074280;28;19948;-76
2022/12/20 08:03:05;;;;;;;;;;;;;;;3.79;100.00;96832.59;5074280;28;20418;-76
2022/12/20 08:05:32;;;;;;;;;;;;;;;3.80;100.00;96833.41;5074542;28;19961;-76
2022/12/20 08:07:58;;;;;;;;;;;;;;;3.79;100.00;96832.59;5074236;28;19947;-76
2022/12/20 08:10:25;;;;;;;;;;;;;;;3.81;100.00;96830.66;5073123;28;19956;-77
2022/12/20 08:12:51;;;;;;;;;;;;;;;3.81;100.00;96838.44;5074044;28;19956;-76
2022/12/20 08:15:18;;;;;;;;;;;;;;;3.82;100.00;96836.66;5073302;28;19950;-76
2022/12/20 08:17:44;;;;;;;;;;;;;;;3.82;100.00;96831.47;5074850;28;19946;-76
2022/12/20 08:20:10;;;;;;;;;;;;;;;3.81;100.00;96822.06;5076061;28;19986;-77
2022/12/20 08:22:35;;;;;;;;;;;;;;;3.82;100.00;96815.88;5074146;28;19952;-76
2022/12/20 08:25:02;;;;;;;;;;;;;;;3.86;100.00;96820.59;5074082;28;19955;-76
2022/12/20 08:27:27;;;;;;;;;;;;;;;3.94;100.00;96818.94;5074228;28;20338;-75
2022/12/20 08:29:53;;;;;;;;;;;;;;;3.98;100.00;96810.66;5073955;28;19960;-77
2022/12/20 08:32:19;;;;;;;;;;;;;;;4.03;100.00;96810.16;5074586;28;20401;-76
2022/12/20 08:34:45;;;;;;;;;;;;;;;4.06;100.00;96809.84;5074150;28;20485;-75
2022/12/20 08:37:11;;;;;;;;;;;;;;;4.16;100.00;96801.84;5055739;28;20008;-76
2022/12/20 08:39:37;;;;;;;;;;;;;;;4.21;100.00;96808.16;5073807;28;19997;-76
2022/12/20 08:42:03;;;;;;;;;;;;;;;4.27;100.00;96794.50;5073762;28;20039;-76
2022/12/20 08:44:29;;;;;;;;;;;;;;;4.32;100.00;96804.38;5073928;28;19961;-75
2022/12/20 08:46:55;;;;;;;;;;;;;;;4.32;100.00;96801.75;5073671;28;19955;-76
2022/12/20 08:49:21;;;;;;;;;;;;;;;4.32;100.00;96798.38;5073722;28;20113;-75
2022/12/20 08:51:47;;;;;;;;;;;;;;;4.30;100.00;96808.13;5073665;28;19954;-76
2022/12/20 08:54:12;;;;;;;;;;;;;;;4.30;100.00;96808.91;5073759;28;19954;-76
2022/12/20 08:56:38;;;;;;;;;;;;;;;4.31;100.00;96799.38;5073963;28;19944;-76
2022/12/20 08:59:04;;;;;;;;;;;;;;;4.32;100.00;96801.75;5073480;28;19954;-76
2022/12/20 09:01:32;;;;;;;;;;;;;;;4.32;100.00;96793.19;5055642;28;19989;-75
2022/12/20 09:03:58;;;;;;;;;;;;;;;4.31;100.00;96805.34;5056303;28;19950;-76
2022/12/20 09:06:24;;;;;;;;;;;;;;;4.31;100.00;96792.38;5055539;28;20051;-76
2022/12/20 09:08:50;;;;;;;;;;;;;;;4.31;100.00;96791.56;5073345;28;20010;-76
2022/12/20 09:11:21;;;;;;;;;;;;;;;4.30;100.00;96795.94;5073327;28;19963;-75
2022/12/20 09:13:48;;;;;;;;;;;;;;;4.30;100.00;96789.94;5073522;28;19960;-75
2022/12/20 09:16:15;;;;;;;;;;;;;;;4.29;100.00;96796.94;5073437;28;19950;-75
2022/12/20 09:18:42;;;;;;;;;;;;;;;4.29;100.00;96801.31;5072742;28;19950;-75
2022/12/20 09:21:08;;;;;;;;;;;;;;;4.30;100.00;96792.53;5073438;28;19954;-75
2022/12/20 09:23:35;;;;;;;;;;;;;;;4.32;100.00;96788.78;5073237;28;20409;-75
2022/12/20 09:26:02;;;;;;;;;;;;;;;4.34;100.00;96793.81;5073102;28;19956;-75
2022/12/20 09:28:29;;;;;;;;;;;;;;;4.34;100.00;96801.59;5076688;28;19947;-75
2022/12/20 09:31:03;;;;;;;;;;;;;;;4.39;100.00;96799.28;5077480;28;19952;-75
2022/12/20 09:33:29;;;;;;;;;;;;;;;4.45;100.00;96798.63;5059326;28;19947;-75
2022/12/20 09:35:56;;;;;;;;;;;;;;;4.53;100.00;96803.78;5076971;28;19969;-75
2022/12/20 09:38:22;;;;;;;;;;;;;;;4.63;100.00;96798.38;5077811;28;19949;-75
2022/12/20 09:40:58;;;;;;;;;;;;;;;4.72;100.00;96789.53;5059089;28;19953;-75
2022/12/20 09:43:24;;;;;;;;;;;;;;;4.85;100.00;96775.97;5076540;28;19946;-74
2022/12/20 09:45:52;;;;;;;;;;;;;;;4.98;100.00;96767.63;5076894;28;19954;-75
2022/12/20 09:48:20;;;;;;;;;;;;;;;5.05;100.00;96768.53;5076829;28;20401;-74
2022/12/20 09:51:12;;;;;;;;;;;;;;;5.09;100.00;96770.59;5059206;28;19958;-75
2022/12/20 09:53:50;;;;;;;;;;;;;;;5.13;100.00;96770.25;5064529;28;19943;-76
2022/12/20 09:56:27;;;;;;;;;;;;;;;5.15;100.00;96770.91;5076998;28;19951;-75
2022/12/20 09:58:57;;;;;;;;;;;;;;;5.15;100.00;96770.91;5076702;28;19958;-76
2022/12/20 10:01:24;;;;;;;;;;;;;;;5.14;100.00;96777.06;5064740;28;20050;-75
2022/12/20 10:03:50;;;;;;;;;;;;;;;5.10;100.00;96774.00;5076428;28;19953;-74
2022/12/20 10:06:26;;;;;;;;;;;;;;;5.08;100.00;96770.75;5076455;28;19958;-74
2022/12/20 10:08:57;;;;;;;;;;;;;;;5.06;99.81;96768.34;5058768;28;19981;-75
2022/12/20 10:11:23;;;;;;;;;;;;;;;5.03;100.00;96765.28;5076299;28;19943;-74
2022/12/20 10:13:52;;;;;;;;;;;;;;;5.00;100.00;96755.25;5076595;28;19947;-74
2022/12/20 10:16:36;;;;;;;;;;;;;;;4.95;100.00;96741.97;5076500;28;19944;-75
2022/12/20 10:19:21;;;;;;;;;;;;;;;4.90;100.00;96741.69;5062557;28;19943;-74
2022/12/20 10:22:03;;;;;;;;;;;;;;;4.85;100.00;96750.81;5076196;28;19945;-72
2022/12/20 10:24:30;;;;;;;;;;;;;;;4.83;100.00;96746.75;5076716;28;20394;-74
2022/12/20 10:27:01;;;;;;;;;;;;;;;4.79;100.00;96738.50;5061730;28;20338;-74
2022/12/20 10:29:28;;;;;;;;;;;;;;;4.78;100.00;96734.28;5076349;28;19968;-74
2022/12/20 10:31:59;;;;;;;;;;;;;;;4.78;100.00;96738.69;5075958;28;20336;-73
2022/12/20 10:34:25;;;;;;;;;;;;;;;4.77;100.00;96730.09;5076054;28;19955;-75
2022/12/20 10:37:14;;;;;;;;;;;;;;;4.77;100.00;96737.88;5075659;28;19972;-75
2022/12/20 10:39:42;;;;;;;;;;;;;;;4.77;100.00;96729.28;5067495;28;19970;-74
2022/12/20 10:42:32;;;;;;;;;;;;;;;4.76;100.00;96731.06;5075831;28;19953;-74
2022/12/20 10:44:58;;;;;;;;;;;;;;;4.74;100.00;96722.63;5075913;28;19946;-74
2022/12/20 10:47:30;;;;;;;;;;;;;;;4.77;100.00;96729.28;5075713;28;19960;-74
2022/12/20 10:50:07;;;;;;;;;;;;;;;4.78;100.00;96715.28;5075819;28;19994;-74
2022/12/20 10:52:32;;;;;;;;;;;;;;;4.80;100.00;96714.13;5075707;28;19946;-74
2022/12/20 10:54:58;;;;;;;;;;;;;;;4.84;100.00;96707.59;5075812;28;20481;-75
2022/12/20 10:57:25;;;;;;;;;;;;;;;4.88;100.00;96705.47;5075445;28;19996;-74
2022/12/20 11:00:01;;;;;;;;;;;;;;;4.90;100.00;96694.91;5076050;28;19955;-74
2022/12/20 11:02:38;;;;;;;;;;;;;;;4.91;100.00;96691.31;5075663;28;19945;-74
2022/12/20 11:05:10;;;;;;;;;;;;;;;4.91;100.00;96681.72;5075666;28;19958;-74
2022/12/20 11:07:37;;;;;;;;;;;;;;;4.94;100.00;96680.59;5075299;28;19956;-74
2022/12/20 11:10:18;;;;;;;;;;;;;;;4.96;100.00;96687.22;5075553;28;19962;-74
2022/12/20 11:12:57;;;;;;;;;;;;;;;5.04;100.00;96683.72;5075261;28;20400;-74
2022/12/20 11:15:25;;;;;;;;;;;;;;;5.09;100.00;96678.81;5075224;28;20303;-74
2022/12/20 11:18:14;;;;;;;;;;;;;;;5.12;100.00;96673.25;5075431;28;19955;-74
2022/12/20 11:20:49;;;;;;;;;;;;;;;5.17;100.00;96657.13;5064297;28;19948;-74
2022/12/20 11:23:18;;;;;;;;;;;;;;;5.21;100.00;96663.59;5075303;28;19947;-74
2022/12/20 11:26:02;;;;;;;;;;;;;;;5.22;100.00;96654.78;5074945;28;19954;-75
2022/12/20 11:28:31;;;;;;;;;;;;;;;5.29;100.00;96653.06;5075191;28;20400;-75
2022/12/20 11:31:03;;;;;;;;;;;;;;;5.31;100.00;96648.50;5074729;28;19976;-74
2022/12/20 11:33:32;;;;;;;;;;;;;;;5.34;100.00;96645.56;5074794;28;19952;-74
2022/12/20 11:36:21;;;;;;;;;;;;;;;5.38;99.84;96646.03;5075217;28;19970;-74
2022/12/20 11:39:10;;;;;;;;;;;;;;;5.41;98.98;96636.03;5043330;28;19956;-74
2022/12/20 11:41:39;;;;;;;;;;;;;;;5.45;99.80;96637.31;5066376;28;19952;-75
2022/12/20 11:44:11;;;;;;;;;;;;;;;5.51;98.73;96640.19;5074413;28;19952;-74
2022/12/20 11:46:56;;;;;;;;;;;;;;;5.52;97.58;96639.19;5074754;28;19952;-74
2022/12/20 11:49:41;;;;;;;;;;;;;;;5.56;97.90;96630.81;5073592;28;20326;-74
2022/12/20 11:52:06;;;;;;;;;;;;;;;5.57;98.74;96629.06;5074588;28;20365;-74
2022/12/20 11:54:40;;;;;;;;;;;;;;;5.56;97.36;96630.03;5074362;28;19944;-74
2022/12/20 11:57:12;;;;;;;;;;;;;;;5.54;98.39;96624.19;5074508;28;20325;-78
2022/12/20 11:59:48;;;;;;;;;;;;;;;5.53;97.90;96620.00;5074501;28;19951;-74
2022/12/20 12:02:19;;;;;;;;;;;;;;;5.50;98.47;96610.75;5074219;28;19963;-75
2022/12/20 12:04:54;;;;;;;;;;;;;;;5.49;99.42;96611.75;5074312;28;19949;-74
2022/12/20 12:07:27;;;;;;;;;;;;;;;5.47;99.50;96606.72;5074164;28;19957;-74
2022/12/20 12:09:53;;;;;;;;;;;;;;;5.47;98.53;96601.50;5074102;28;19959;-74
2022/12/20 12:12:27;;;;;;;;;;;;;;;5.49;98.93;96604.75;5074114;28;19976;-75
2022/12/20 12:15:11;;;;;;;;;;;;;;;5.52;98.36;96594.97;5074317;28;20415;-77
2022/12/20 12:17:40;;;;;;;;;;;;;;;5.55;98.65;96598.00;5074420;28;19952;-74
2022/12/20 12:20:26;;;;;;;;;;;;;;;5.58;98.60;96602.03;5074243;28;20330;-74
2022/12/20 12:22:57;;;;;;;;;;;;;;;5.60;97.63;96598.25;5042515;28;20402;-74
2022/12/20 12:25:23;;;;;;;;;;;;;;;5.63;98.61;96594.50;5074057;28;19963;-74
2022/12/20 12:27:49;;;;;;;;;;;;;;;5.65;98.26;96602.94;5074013;28;19953;-74
2022/12/20 12:30:15;;;;;;;;;;;;;;;5.66;98.31;96589.72;5073914;28;20036;-74
2022/12/20 12:32:45;;;;;;;;;;;;;;;5.69;97.74;96580.75;5073691;28;20337;-74
2022/12/20 12:35:33;;;;;;;;;;;;;;;5.68;95.93;96586.94;5073966;28;19958;-74
2022/12/20 12:38:02;;;;;;;;;;;;;;;5.67;96.22;96569.75;5073724;28;19960;-74
2022/12/20 12:40:47;;;;;;;;;;;;;;;5.64;96.98;96562.28;5073808;28;20409;-74
2022/12/20 12:43:31;;;;;;;;;;;;;;;5.61;97.08;96563.47;5073654;28;19957;-74
2022/12/20 12:45:58;;;;;;;;;;;;;;;5.59;97.77;96573.25;5073828;28;19957;-74
2022/12/20 12:48:37;;;;;;;;;;;;;;;5.58;96.47;96565.63;5072813;28;19950;-74
2022/12/20 12:51:04;;;;;;;;;;;;;;;5.60;97.19;96566.25;5073728;28;19967;-74
2022/12/20 12:53:35;;;;;;;;;;;;;;;5.60;97.56;96561.03;5073314;28;19958;-75
2022/12/20 12:56:20;;;;;;;;;;;;;;;5.61;97.61;96567.88;5072998;28;19948;-74
2022/12/20 12:59:08;;;;;;;;;;;;;;;5.61;97.17;96557.47;5073288;28;19951;-74
2022/12/20 13:01:46;;;;;;;;;;;;;;;5.65;96.41;96556.91;5073367;28;19949;-75
2022/12/20 13:04:15;;;;;;;;;;;;;;;5.67;96.59;96561.94;5059816;28;19948;-75